createdAt,value
2018-07-31T00:02:18.888Z,100100.70
2018-07-31T00:04:47.287Z,100099.91
2018-07-31T00:07:15.760Z,100098.36
2018-07-31T00:09:44.203Z,100097.26
2018-07-31T00:12:12.803Z,100093.08
2018-07-31T00:14:41.459Z,100094.51
2018-07-31T00:17:09.935Z,100098.56
2018-07-31T00:19:38.322Z,100102.10
2018-07-31T00:22:06.991Z,100100.24
2018-07-31T00:24:35.458Z,100090.30
2018-07-31T00:27:03.959Z,100093.63
2018-07-31T00:29:32.505Z,100099.52
2018-07-31T00:32:00.920Z,100092.51
2018-07-31T00:34:29.377Z,100092.86
2018-07-31T00:36:57.862Z,100089.18
2018-07-31T00:39:26.356Z,100095.08
2018-07-31T00:41:54.816Z,100094.02
2018-07-31T00:44:23.551Z,100095.13
2018-07-31T00:46:51.952Z,100089.05
2018-07-31T00:49:20.410Z,100085.13
2018-07-31T00:51:49.088Z,100086.20
2018-07-31T00:54:17.499Z,100085.23
2018-07-31T00:56:45.987Z,100089.34
2018-07-31T00:59:14.875Z,100088.30
2018-07-31T01:01:43.331Z,100082.59
2018-07-31T01:04:11.782Z,100086.24
2018-07-31T01:06:42.438Z,100084.42
2018-07-31T01:09:12.307Z,100081.09
2018-07-31T01:11:41.095Z,100084.59
2018-07-31T01:14:10.342Z,100088.45
2018-07-31T01:16:40.367Z,100079.00
2018-07-31T01:19:09.367Z,100077.08
2018-07-31T01:21:37.803Z,100080.38
2018-07-31T01:24:06.767Z,100088.11
2018-07-31T01:26:35.219Z,100085.04
2018-07-31T01:29:03.648Z,100077.73
2018-07-31T01:31:32.111Z,100080.75
2018-07-31T01:34:00.614Z,100081.05
2018-07-31T01:36:29.099Z,100086.45
2018-07-31T01:38:57.763Z,100095.20
2018-07-31T01:41:26.545Z,100086.40
2018-07-31T01:43:54.983Z,100088.47
2018-07-31T01:46:23.451Z,100088.56
2018-07-31T01:48:51.883Z,100085.65
2018-07-31T01:51:20.345Z,100089.55
2018-07-31T01:53:48.752Z,100083.97
2018-07-31T01:56:17.731Z,100089.71
2018-07-31T01:58:46.143Z,100083.38
2018-07-31T02:01:14.795Z,100086.52
2018-07-31T02:03:43.243Z,100087.42
2018-07-31T02:06:11.793Z,100089.44
2018-07-31T02:08:40.224Z,100092.78
2018-07-31T02:11:08.743Z,100099.68
2018-07-31T02:13:37.173Z,100091.77
2018-07-31T02:16:05.883Z,100094.77
2018-07-31T02:18:34.486Z,100089.67
2018-07-31T02:21:02.988Z,100086.92
2018-07-31T02:23:31.504Z,100085.81
2018-07-31T02:26:00.151Z,100080.48
2018-07-31T02:28:28.708Z,100083.72
2018-07-31T02:30:57.171Z,100086.00
2018-07-31T02:33:25.739Z,100090.08
2018-07-31T02:35:54.170Z,100083.19
2018-07-31T02:38:22.563Z,100080.53
2018-07-31T02:40:51.227Z,100081.67
2018-07-31T02:43:19.763Z,100088.03
2018-07-31T02:45:48.230Z,100089.16
2018-07-31T02:48:16.679Z,100084.53
2018-07-31T02:50:45.059Z,100090.73
2018-07-31T02:53:13.496Z,100087.84
2018-07-31T02:55:42.186Z,100086.92
2018-07-31T02:58:10.666Z,100085.71
2018-07-31T03:00:39.312Z,100083.50
2018-07-31T03:03:07.987Z,100079.30
2018-07-31T03:05:36.469Z,100081.02
2018-07-31T03:08:04.986Z,100080.73
2018-07-31T03:10:33.445Z,100083.02
2018-07-31T03:13:01.879Z,100087.01
2018-07-31T03:15:30.354Z,100092.52
2018-07-31T03:17:58.977Z,100090.73
2018-07-31T03:20:27.455Z,100091.16
2018-07-31T03:22:55.950Z,100095.39
2018-07-31T03:25:24.536Z,100093.84
2018-07-31T03:27:52.939Z,100093.83
2018-07-31T03:30:21.332Z,100083.91
2018-07-31T03:32:49.914Z,100080.24
2018-07-31T03:35:18.311Z,100091.03
2018-07-31T03:37:46.707Z,100090.56
2018-07-31T03:40:15.150Z,100087.16
2018-07-31T03:42:43.603Z,100084.50
2018-07-31T03:45:12.010Z,100087.83
2018-07-31T03:47:40.432Z,100079.23
2018-07-31T03:50:08.951Z,100085.55
2018-07-31T03:52:37.416Z,100091.27
2018-07-31T03:55:06.079Z,100086.61
2018-07-31T03:57:34.542Z,100085.31
2018-07-31T04:00:03.117Z,100088.55
2018-07-31T04:02:31.731Z,100076.08
2018-07-31T04:05:00.147Z,100079.47
2018-07-31T04:07:29.132Z,100079.64
2018-07-31T04:09:57.605Z,100078.27
2018-07-31T04:12:26.043Z,100073.88
2018-07-31T04:14:54.551Z,100079.97
2018-07-31T04:17:23.079Z,100078.46
2018-07-31T04:19:51.544Z,100083.94
2018-07-31T04:22:20.035Z,100087.39
2018-07-31T04:24:48.502Z,100090.35
2018-07-31T04:27:17.000Z,100092.88
2018-07-31T04:29:45.410Z,100094.20
2018-07-31T04:32:14.235Z,100104.70
2018-07-31T04:34:42.690Z,100097.09
2018-07-31T04:37:11.092Z,100094.18
2018-07-31T04:39:39.626Z,100098.34
2018-07-31T04:42:08.072Z,100101.89
2018-07-31T04:44:36.587Z,100100.66
2018-07-31T04:47:06.392Z,100098.55
2018-07-31T04:49:34.919Z,100106.00
2018-07-31T04:52:03.379Z,100105.02
2018-07-31T04:54:32.016Z,100107.11
2018-07-31T04:57:01.032Z,100112.69
2018-07-31T04:59:29.535Z,100104.75
2018-07-31T05:01:58.091Z,100105.44
2018-07-31T05:04:26.602Z,100107.63
2018-07-31T05:06:54.955Z,100110.33
2018-07-31T05:09:23.850Z,100111.14
2018-07-31T05:11:52.249Z,100111.69
2018-07-31T05:14:20.659Z,100111.50
2018-07-31T05:16:49.347Z,100103.59
2018-07-31T05:19:17.739Z,100113.56
2018-07-31T05:21:46.259Z,100108.02
2018-07-31T05:24:14.754Z,100111.94
2018-07-31T05:26:43.222Z,100110.81
2018-07-31T05:29:11.605Z,100121.92
2018-07-31T05:31:40.055Z,100123.88
2018-07-31T05:34:08.524Z,100129.44
2018-07-31T05:36:36.952Z,100137.23
2018-07-31T05:39:08.867Z,100133.45
2018-07-31T05:41:37.399Z,100133.88
2018-07-31T05:44:06.283Z,100134.31
2018-07-31T05:46:34.864Z,100136.33
2018-07-31T05:49:03.689Z,100143.70
2018-07-31T05:51:32.117Z,100139.48
2018-07-31T05:54:00.745Z,100141.55
2018-07-31T05:56:29.266Z,100141.69
2018-07-31T05:58:57.678Z,100150.05
2018-07-31T06:01:26.335Z,100149.71
2018-07-31T06:03:54.875Z,100147.47
2018-07-31T06:06:23.400Z,100140.75
2018-07-31T06:08:52.199Z,100141.95
2018-07-31T06:11:20.722Z,100145.46
2018-07-31T06:13:49.131Z,100147.50
2018-07-31T06:16:17.783Z,100143.03
2018-07-31T06:18:46.225Z,100151.93
2018-07-31T06:21:14.679Z,100153.80
2018-07-31T06:23:43.268Z,100150.06
2018-07-31T06:26:11.647Z,100155.60
2018-07-31T06:28:40.083Z,100160.39
2018-07-31T06:31:08.591Z,100164.09
2018-07-31T06:33:37.099Z,100161.72
2018-07-31T06:36:05.508Z,100164.30
2018-07-31T06:38:34.091Z,100166.20
2018-07-31T06:41:02.884Z,100173.60
2018-07-31T06:43:31.413Z,100164.17
2018-07-31T06:45:59.855Z,100172.87
2018-07-31T06:48:28.247Z,100172.36
2018-07-31T06:50:57.791Z,100180.19
2018-07-31T06:53:26.527Z,100183.22
2018-07-31T06:55:54.983Z,100191.27
2018-07-31T06:58:23.387Z,100190.40
2018-07-31T07:00:51.927Z,100190.95
2018-07-31T07:03:20.339Z,100186.90
2018-07-31T07:05:48.882Z,100186.16
2018-07-31T07:08:17.610Z,100191.97
2018-07-31T07:10:46.051Z,100184.11
2018-07-31T07:13:14.442Z,100186.88
2018-07-31T07:15:43.407Z,100189.31
2018-07-31T07:18:11.827Z,100183.47
2018-07-31T07:20:40.309Z,100177.16
2018-07-31T07:23:08.988Z,100182.13
2018-07-31T07:25:37.367Z,100184.11
2018-07-31T07:28:05.913Z,100187.88
2018-07-31T07:30:34.551Z,100188.84
2018-07-31T07:33:02.959Z,100194.68
2018-07-31T07:35:31.350Z,100194.85
2018-07-31T07:37:59.907Z,100188.86
2018-07-31T07:40:28.299Z,100190.93
2018-07-31T07:42:56.831Z,100186.00
2018-07-31T07:45:25.543Z,100193.70
2018-07-31T07:47:53.979Z,100188.75
2018-07-31T07:50:22.435Z,100202.41
2018-07-31T07:52:51.363Z,100194.92
2018-07-31T07:55:19.831Z,100198.16
2018-07-31T07:57:48.387Z,100199.72
2018-07-31T08:00:17.049Z,100200.75
2018-07-31T08:02:45.508Z,100196.95
2018-07-31T08:05:13.963Z,100192.17
2018-07-31T08:07:42.424Z,100188.41
2018-07-31T08:10:10.896Z,100189.94
2018-07-31T08:12:39.416Z,100199.20
2018-07-31T08:15:08.292Z,100189.80
2018-07-31T08:17:36.587Z,100197.96
2018-07-31T08:20:06.254Z,100202.81
2018-07-31T08:22:34.983Z,100205.02
2018-07-31T08:25:03.478Z,100201.56
2018-07-31T08:27:31.921Z,100197.85
2018-07-31T08:30:00.472Z,100200.80
2018-07-31T08:32:28.907Z,100198.38
2018-07-31T08:34:57.386Z,100201.58
2018-07-31T08:37:25.944Z,100196.11
2018-07-31T08:39:54.370Z,100198.59
2018-07-31T08:42:22.851Z,100208.38
2018-07-31T08:44:51.627Z,100206.06
2018-07-31T08:47:20.298Z,100203.31
2018-07-31T08:49:48.663Z,100203.88
2018-07-31T08:52:17.375Z,100202.45
2018-07-31T08:54:45.823Z,100203.36
2018-07-31T08:57:14.311Z,100196.58
2018-07-31T08:59:42.815Z,100202.94
2018-07-31T09:02:11.353Z,100199.55
2018-07-31T09:04:39.846Z,100201.42
2018-07-31T09:07:08.285Z,100200.45
2018-07-31T09:09:36.659Z,100200.80
2018-07-31T09:12:05.252Z,100208.20
2018-07-31T09:14:33.767Z,100202.39
2018-07-31T09:17:02.159Z,100203.16
2018-07-31T09:19:30.567Z,100199.27
2018-07-31T09:21:59.087Z,100192.11
2018-07-31T09:24:27.827Z,100192.43
2018-07-31T09:26:56.295Z,100194.73
2018-07-31T09:29:24.752Z,100192.66
2018-07-31T09:31:53.112Z,100195.41
2018-07-31T09:34:21.567Z,100188.15
2018-07-31T09:36:50.313Z,100187.28
2018-07-31T09:39:18.720Z,100185.23
2018-07-31T09:41:47.252Z,100186.06
2018-07-31T09:44:15.895Z,100189.00
2018-07-31T09:46:44.400Z,100187.98
2018-07-31T09:49:12.860Z,100189.53
2018-07-31T09:51:41.337Z,100193.58
2018-07-31T09:54:09.801Z,100192.89
2018-07-31T09:56:38.288Z,100191.72
2018-07-31T09:59:06.741Z,100192.03
2018-07-31T10:01:35.154Z,100193.41
2018-07-31T10:04:03.561Z,100193.77
2018-07-31T10:06:32.346Z,100191.19
2018-07-31T10:09:00.731Z,100190.24
2018-07-31T10:11:29.123Z,100190.59
2018-07-31T10:13:57.564Z,100184.45
2018-07-31T10:16:26.061Z,100177.98
2018-07-31T10:18:54.608Z,100177.95
2018-07-31T10:21:23.206Z,100181.36
2018-07-31T10:23:51.630Z,100176.84
2018-07-31T10:26:20.123Z,100179.82
2018-07-31T10:28:48.904Z,100179.22
2018-07-31T10:31:17.323Z,100178.38
2018-07-31T10:33:45.707Z,100183.16
2018-07-31T10:36:14.296Z,100178.47
2018-07-31T10:38:42.687Z,100173.35
2018-07-31T10:41:11.187Z,100174.41
2018-07-31T10:43:39.724Z,100169.55
2018-07-31T10:46:08.167Z,100168.38
2018-07-31T10:48:36.687Z,100177.32
2018-07-31T10:51:05.581Z,100174.16
2018-07-31T10:53:34.098Z,100175.72
2018-07-31T10:56:02.569Z,100177.74
2018-07-31T10:58:31.740Z,100168.14
2018-07-31T11:01:00.171Z,100169.75
2018-07-31T11:03:28.776Z,100168.47
2018-07-31T11:05:57.290Z,100162.39
2018-07-31T11:08:25.807Z,100162.52
2018-07-31T11:10:54.239Z,100164.42
2018-07-31T11:13:22.761Z,100163.34
2018-07-31T11:15:51.419Z,100167.63
2018-07-31T11:18:19.885Z,100169.65
2018-07-31T11:20:48.368Z,100160.89
2018-07-31T11:23:16.833Z,100161.52
2018-07-31T11:25:45.331Z,100160.42
2018-07-31T11:28:14.203Z,100167.00
2018-07-31T11:30:42.677Z,100160.48
2018-07-31T11:33:11.182Z,100156.12
2018-07-31T11:35:39.615Z,100156.39
2018-07-31T11:38:08.035Z,100152.66
2018-07-31T11:40:36.412Z,100146.66
2018-07-31T11:43:05.355Z,100155.27
2018-07-31T11:45:33.775Z,100151.73
2018-07-31T11:48:02.190Z,100150.80
2018-07-31T11:50:30.679Z,100147.83
2018-07-31T11:52:59.179Z,100143.75
2018-07-31T11:55:27.673Z,100142.90
2018-07-31T11:57:56.172Z,100142.20
2018-07-31T12:00:24.594Z,100140.59
2018-07-31T12:02:53.027Z,100138.98
2018-07-31T12:05:21.683Z,100126.96
2018-07-31T12:07:50.119Z,100129.83
2018-07-31T12:10:18.543Z,100132.55
2018-07-31T12:12:47.182Z,100130.39
2018-07-31T12:15:15.695Z,100134.61
2018-07-31T12:17:44.179Z,100128.12
2018-07-31T12:20:12.771Z,100130.10
2018-07-31T12:22:41.176Z,100132.67
2018-07-31T12:25:09.567Z,100125.66
2018-07-31T12:27:37.977Z,100127.44
2018-07-31T12:30:08.903Z,100123.94
2018-07-31T12:32:37.451Z,100125.48
2018-07-31T12:35:06.011Z,100125.37
2018-07-31T12:37:34.447Z,100139.80
2018-07-31T12:40:03.275Z,100135.59
2018-07-31T12:42:31.650Z,100130.58
2018-07-31T12:45:00.057Z,100127.68
2018-07-31T12:47:28.491Z,100128.80
2018-07-31T12:49:57.335Z,100131.28
2018-07-31T12:52:25.713Z,100125.05
2018-07-31T12:54:54.227Z,100129.34
2018-07-31T12:57:22.699Z,100132.13
2018-07-31T12:59:51.200Z,100127.53
2018-07-31T13:02:20.147Z,100128.03
2018-07-31T13:04:48.650Z,100123.42
2018-07-31T13:07:17.057Z,100128.72
2018-07-31T13:09:45.882Z,100126.33
2018-07-31T13:12:14.331Z,100123.59
2018-07-31T13:14:42.771Z,100118.52
2018-07-31T13:17:11.506Z,100116.91
2018-07-31T13:19:40.231Z,100118.42
2018-07-31T13:22:08.744Z,100115.01
2018-07-31T13:24:37.295Z,100117.22
2018-07-31T13:27:05.735Z,100110.53
2018-07-31T13:29:34.203Z,100108.65
2018-07-31T13:32:03.120Z,100106.88
2018-07-31T13:34:32.221Z,100105.88
2018-07-31T13:37:00.666Z,100108.05
2018-07-31T13:39:29.384Z,100109.64
2018-07-31T13:41:57.859Z,100095.75
2018-07-31T13:44:27.903Z,100107.02
2018-07-31T13:46:56.387Z,100102.30
2018-07-31T13:49:24.883Z,100108.28
2018-07-31T13:51:53.345Z,100100.38
2018-07-31T13:54:22.045Z,100097.00
2018-07-31T13:56:50.610Z,100100.54
2018-07-31T13:59:19.103Z,100101.83
2018-07-31T14:01:47.676Z,100101.09
2018-07-31T14:04:16.646Z,100101.94
2018-07-31T14:06:45.403Z,100103.75
2018-07-31T14:09:14.064Z,100106.91
2018-07-31T14:11:42.551Z,100104.89
2018-07-31T14:14:11.011Z,100103.71
2018-07-31T14:16:39.688Z,100103.23
2018-07-31T14:19:08.265Z,100107.77
2018-07-31T14:21:37.111Z,100099.78
2018-07-31T14:24:05.779Z,100106.41
2018-07-31T14:26:34.192Z,100106.72
2018-07-31T14:29:02.690Z,100112.55
2018-07-31T14:31:31.231Z,100114.31
2018-07-31T14:33:59.811Z,100111.42
2018-07-31T14:36:28.245Z,100116.77
2018-07-31T14:38:56.792Z,100113.73
2018-07-31T14:41:25.199Z,100116.94
2018-07-31T14:43:53.787Z,100118.37
2018-07-31T14:46:22.307Z,100118.11
2018-07-31T14:48:50.815Z,100113.41
2018-07-31T14:51:19.232Z,100106.48
2018-07-31T14:53:47.755Z,100120.67
2018-07-31T14:56:16.159Z,100119.58
2018-07-31T14:58:44.546Z,100110.23
2018-07-31T15:01:13.278Z,100111.86
2018-07-31T15:03:41.731Z,100118.66
2018-07-31T15:06:10.179Z,100114.56
2018-07-31T15:08:39.820Z,100112.55
2018-07-31T15:11:10.088Z,100118.19
2018-07-31T15:13:38.906Z,100114.05
2018-07-31T15:16:07.621Z,100119.58
2018-07-31T15:18:36.020Z,100116.83
2018-07-31T15:21:04.624Z,100117.91
2018-07-31T15:23:33.064Z,100123.64
2018-07-31T15:26:01.763Z,100117.77
2018-07-31T15:28:30.428Z,100109.70
2018-07-31T15:30:58.903Z,100119.69
2018-07-31T15:33:27.347Z,100115.86
2018-07-31T15:35:56.383Z,100120.33
2018-07-31T15:38:25.147Z,100119.06
2018-07-31T15:40:53.615Z,100116.70
2018-07-31T15:43:22.295Z,100113.20
2018-07-31T15:45:50.807Z,100117.98
2018-07-31T15:48:19.227Z,100118.14
2018-07-31T15:50:47.859Z,100121.05
2018-07-31T15:53:16.315Z,100117.45
2018-07-31T15:55:44.790Z,100122.01
2018-07-31T15:58:13.351Z,100126.47
2018-07-31T16:00:41.764Z,100118.84
2018-07-31T16:03:10.274Z,100113.47
2018-07-31T16:05:38.770Z,100115.09
2018-07-31T16:08:07.216Z,100120.76
2018-07-31T16:10:35.631Z,100121.49
2018-07-31T16:13:04.083Z,100116.30
2018-07-31T16:15:32.463Z,100113.83
2018-07-31T16:18:01.851Z,100112.41
2018-07-31T16:20:31.627Z,100112.42
2018-07-31T16:23:00.069Z,100109.98
2018-07-31T16:25:28.679Z,100114.69
2018-07-31T16:27:57.188Z,100116.44
2018-07-31T16:30:30.193Z,100109.36
2018-07-31T16:32:58.915Z,100116.98
2018-07-31T16:35:27.379Z,100118.36
2018-07-31T16:37:55.835Z,100117.40
2018-07-31T16:40:24.343Z,100119.71
2018-07-31T16:42:52.834Z,100116.05
2018-07-31T16:45:22.260Z,100111.38
2018-07-31T16:47:50.776Z,100112.63
2018-07-31T16:50:19.211Z,100109.06
2018-07-31T16:52:47.694Z,100109.50
2018-07-31T16:55:16.163Z,100115.02
2018-07-31T16:57:44.611Z,100114.64
2018-07-31T17:00:13.040Z,100116.03
2018-07-31T17:02:41.618Z,100119.14
2018-07-31T17:05:10.032Z,100119.57
2018-07-31T17:07:38.522Z,100115.64
2018-07-31T17:10:07.191Z,100117.94
2018-07-31T17:12:35.658Z,100117.53
2018-07-31T17:15:04.619Z,100119.97
2018-07-31T17:17:33.242Z,100127.84
2018-07-31T17:20:01.659Z,100137.78
2018-07-31T17:22:30.235Z,100135.67
2018-07-31T17:24:58.951Z,100134.48
2018-07-31T17:27:27.478Z,100137.42
2018-07-31T17:29:56.060Z,100139.06
2018-07-31T17:32:24.823Z,100143.56
2018-07-31T17:34:53.227Z,100132.34
2018-07-31T17:37:21.644Z,100137.17
2018-07-31T17:39:50.505Z,100138.27
2018-07-31T17:42:18.898Z,100145.95
2018-07-31T17:44:47.322Z,100141.56
2018-07-31T17:47:16.243Z,100146.16
2018-07-31T17:49:44.696Z,100147.42
2018-07-31T17:52:13.093Z,100145.31
2018-07-31T17:54:41.513Z,100148.05
2018-07-31T17:57:10.218Z,100144.98
2018-07-31T17:59:38.703Z,100153.50
2018-07-31T18:02:07.985Z,100151.78
2018-07-31T18:04:36.524Z,100162.87
2018-07-31T18:07:04.975Z,100158.95
2018-07-31T18:09:33.415Z,100161.80
2018-07-31T18:12:01.943Z,100164.16
2018-07-31T18:14:30.479Z,100164.73
2018-07-31T18:16:58.904Z,100164.80
2018-07-31T18:19:27.367Z,100172.08
2018-07-31T18:21:55.767Z,100172.27
2018-07-31T18:24:24.632Z,100174.30
2018-07-31T18:26:53.064Z,100180.37
2018-07-31T18:29:21.547Z,100179.41
2018-07-31T18:31:50.211Z,100180.43
2018-07-31T18:34:18.605Z,100182.77
2018-07-31T18:36:46.979Z,100182.36
2018-07-31T18:39:15.611Z,100185.70
2018-07-31T18:41:44.030Z,100185.48
2018-07-31T18:44:12.637Z,100195.31
2018-07-31T18:46:41.687Z,100194.12
2018-07-31T18:49:10.237Z,100195.45
2018-07-31T18:51:38.700Z,100201.17
2018-07-31T18:54:07.611Z,100190.05
2018-07-31T18:56:36.748Z,100199.33
2018-07-31T18:59:05.214Z,100199.69
2018-07-31T19:01:33.910Z,100200.62
2018-07-31T19:04:02.399Z,100203.23
2018-07-31T19:06:30.865Z,100210.08
2018-07-31T19:08:59.489Z,100210.84
2018-07-31T19:11:28.346Z,100212.39
2018-07-31T19:13:56.871Z,100214.46
2018-07-31T19:16:25.679Z,100220.95
2018-07-31T19:18:54.194Z,100218.61
2018-07-31T19:21:22.853Z,100220.37
2018-07-31T19:23:51.705Z,100227.32
2018-07-31T19:26:20.235Z,100236.70
2018-07-31T19:28:48.732Z,100237.35
2018-07-31T19:31:17.522Z,100239.95
2018-07-31T19:33:46.059Z,100244.06
2018-07-31T19:36:15.221Z,100248.05
2018-07-31T19:38:44.273Z,100247.14
2018-07-31T19:41:13.186Z,100251.98
2018-07-31T19:43:42.257Z,100259.72
2018-07-31T19:46:10.950Z,100261.45
2018-07-31T19:48:39.875Z,100257.34
2018-07-31T19:51:09.058Z,100259.20
2018-07-31T19:53:37.896Z,100265.36
2018-07-31T19:56:06.874Z,100268.65
2018-07-31T19:58:38.497Z,100269.67
2018-07-31T20:01:08.765Z,100275.30
2018-07-31T20:03:37.948Z,100280.30
2018-07-31T20:06:06.987Z,100281.69
2018-07-31T20:08:35.804Z,100280.81
2018-07-31T20:11:05.037Z,100280.87
2018-07-31T20:13:33.651Z,100278.14
2018-07-31T20:16:02.550Z,100284.06
2018-07-31T20:18:31.688Z,100291.13
2018-07-31T20:21:03.579Z,100292.30
2018-07-31T20:23:33.031Z,100298.59
2018-07-31T20:26:02.106Z,100296.00
2018-07-31T20:28:31.190Z,100297.22
2018-07-31T20:31:00.252Z,100303.99
2018-07-31T20:33:33.066Z,100304.25
2018-07-31T20:36:03.041Z,100303.30
2018-07-31T20:38:31.898Z,100308.36
2018-07-31T20:41:01.377Z,100310.59
2018-07-31T20:43:31.809Z,100305.59
2018-07-31T20:46:01.043Z,100314.51
2018-07-31T20:48:30.229Z,100313.56
2018-07-31T20:50:59.616Z,100309.89
2018-07-31T20:53:28.338Z,100318.27
2018-07-31T20:55:56.949Z,100319.91
2018-07-31T20:58:25.668Z,100314.59
2018-07-31T21:00:54.259Z,100313.23
2018-07-31T21:03:27.162Z,100321.30
2018-07-31T21:05:56.092Z,100318.64
2018-07-31T21:08:24.612Z,100317.55
2018-07-31T21:10:53.483Z,100318.23
2018-07-31T21:13:21.907Z,100317.76
2018-07-31T21:15:50.376Z,100317.84
2018-07-31T21:18:18.925Z,100320.58
2018-07-31T21:20:47.668Z,100316.81
2018-07-31T21:23:16.152Z,100314.49
2018-07-31T21:25:48.615Z,100321.64
2018-07-31T21:28:17.136Z,100325.89
2018-07-31T21:30:48.582Z,100321.56
2018-07-31T21:33:17.653Z,100325.27
2018-07-31T21:35:47.419Z,100325.84
2018-07-31T21:38:16.275Z,100324.49
2018-07-31T21:40:47.382Z,100330.88
2018-07-31T21:43:17.263Z,100331.67
2018-07-31T21:45:45.869Z,100325.72
2018-07-31T21:48:17.017Z,100336.94
2018-07-31T21:50:45.665Z,100333.95
2018-07-31T21:53:17.684Z,100333.18
2018-07-31T21:55:50.459Z,100340.77
2018-07-31T21:58:19.831Z,100339.73
2018-07-31T22:00:56.297Z,100339.16
2018-07-31T22:03:28.851Z,100333.32
2018-07-31T22:05:58.794Z,100341.64
2018-07-31T22:08:28.694Z,100344.77
2018-07-31T22:11:00.207Z,100349.02
2018-07-31T22:13:32.905Z,100355.58
2018-07-31T22:16:01.451Z,100348.58
2018-07-31T22:18:30.901Z,100354.22
2018-07-31T22:21:01.127Z,100352.72
2018-07-31T22:23:29.579Z,100348.17
2018-07-31T22:25:58.355Z,100342.72
2018-07-31T22:28:27.933Z,100343.06
2018-07-31T22:30:57.379Z,100349.67
2018-07-31T22:33:27.697Z,100352.91
2018-07-31T22:35:56.183Z,100353.47
2018-07-31T22:38:25.037Z,100363.63
2018-07-31T22:40:56.276Z,100362.94
2018-07-31T22:43:25.156Z,100366.28
2018-07-31T22:45:53.711Z,100365.20
2018-07-31T22:48:23.807Z,100367.34
2018-07-31T22:50:52.386Z,100363.94
2018-07-31T22:53:24.147Z,100367.20
2018-07-31T22:55:54.361Z,100366.33
2018-07-31T22:58:25.221Z,100374.02
2018-07-31T23:00:54.008Z,100376.59
2018-07-31T23:03:23.925Z,100375.08
2018-07-31T23:05:54.711Z,100378.23
2018-07-31T23:08:24.739Z,100376.95
2018-07-31T23:10:55.908Z,100383.66
2018-07-31T23:13:25.840Z,100377.94
2018-07-31T23:15:57.234Z,100378.21
2018-07-31T23:18:25.967Z,100371.33
2018-07-31T23:20:54.534Z,100373.97
2018-07-31T23:23:22.882Z,100384.38
2018-07-31T23:25:51.307Z,100383.24
2018-07-31T23:28:19.707Z,100385.73
2018-07-31T23:30:48.290Z,100382.87
2018-07-31T23:33:16.946Z,100387.06
2018-07-31T23:35:45.371Z,100382.08
2018-07-31T23:38:13.824Z,100390.14
2018-07-31T23:40:42.300Z,100389.79
2018-07-31T23:43:10.900Z,100394.14
2018-07-31T23:45:40.219Z,100394.06
2018-07-31T23:48:08.724Z,100403.98
2018-07-31T23:50:37.311Z,100406.24
2018-07-31T23:53:06.259Z,100409.30
2018-07-31T23:55:34.679Z,100407.25
2018-07-31T23:58:03.102Z,100402.27
